createdAt,value
2017-07-04T00:01:58.239Z,4.80
2017-07-04T00:04:25.794Z,5.00
2017-07-04T00:06:53.399Z,4.27
2017-07-04T00:09:21.730Z,5.20
2017-07-04T00:11:49.294Z,5.20
2017-07-04T00:14:16.882Z,5.23
2017-07-04T00:16:45.227Z,5.73
2017-07-04T00:19:12.802Z,5.30
2017-07-04T00:21:40.356Z,4.37
2017-07-04T00:24:08.087Z,4.93
2017-07-04T00:26:35.698Z,4.80
2017-07-04T00:29:03.274Z,4.97
2017-07-04T00:31:30.839Z,4.70
2017-07-04T00:33:58.428Z,4.70
2017-07-04T00:36:25.990Z,4.20
2017-07-04T00:38:53.550Z,4.57
2017-07-04T00:41:21.146Z,4.07
2017-07-04T00:43:48.698Z,4.73
2017-07-04T00:46:16.278Z,5.30
2017-07-04T00:48:43.879Z,3.73
2017-07-04T00:51:12.300Z,4.53
2017-07-04T00:53:39.882Z,5.83
2017-07-04T00:56:07.463Z,5.20
2017-07-04T00:58:35.060Z,4.73
2017-07-04T01:01:03.387Z,4.10
2017-07-04T01:03:31.088Z,4.00
2017-07-04T01:05:58.670Z,4.33
2017-07-04T01:08:26.986Z,4.30
2017-07-04T01:10:54.567Z,5.40
2017-07-04T01:13:22.120Z,4.67
2017-07-04T01:15:49.709Z,3.93
2017-07-04T01:18:18.248Z,5.13
2017-07-04T01:20:45.864Z,4.30
2017-07-04T01:23:13.410Z,5.07
2017-07-04T01:25:40.962Z,4.83
2017-07-04T01:28:08.640Z,4.30
2017-07-04T01:30:36.250Z,5.63
2017-07-04T01:33:03.822Z,5.03
2017-07-04T01:35:31.593Z,5.00
2017-07-04T01:37:59.169Z,4.30
2017-07-04T01:40:26.733Z,5.30
2017-07-04T01:42:54.333Z,5.70
2017-07-04T01:45:22.789Z,5.83
2017-07-04T01:47:50.350Z,6.00
2017-07-04T01:50:17.930Z,5.67
2017-07-04T01:52:46.250Z,5.93
2017-07-04T01:55:13.810Z,5.73
2017-07-04T01:57:41.418Z,6.43
2017-07-04T02:00:09.092Z,6.50
2017-07-04T02:02:36.709Z,6.27
2017-07-04T02:05:06.009Z,6.03
2017-07-04T02:07:33.638Z,7.03
2017-07-04T02:10:01.207Z,6.10
2017-07-04T02:12:29.594Z,7.40
2017-07-04T02:14:57.247Z,7.70
2017-07-04T02:17:25.602Z,7.60
2017-07-04T02:19:53.179Z,8.20
2017-07-04T02:22:21.530Z,8.40
2017-07-04T02:24:49.086Z,7.20
2017-07-04T02:27:16.781Z,8.73
2017-07-04T02:29:45.131Z,8.37
2017-07-04T02:32:12.692Z,7.10
2017-07-04T02:34:40.253Z,9.57
2017-07-04T02:37:07.843Z,7.70
2017-07-04T02:39:35.414Z,9.03
2017-07-04T02:42:03.926Z,8.70
2017-07-04T02:44:31.502Z,8.03
2017-07-04T02:46:59.086Z,8.67
2017-07-04T02:49:26.639Z,8.97
2017-07-04T02:51:54.215Z,8.10
2017-07-04T02:54:21.791Z,7.43
2017-07-04T02:56:49.348Z,8.53
2017-07-04T02:59:16.934Z,8.47
2017-07-04T03:01:45.318Z,8.63
2017-07-04T03:04:13.643Z,8.70
2017-07-04T03:06:41.330Z,7.77
2017-07-04T03:09:08.902Z,7.80
2017-07-04T03:11:36.478Z,8.37
2017-07-04T03:14:05.166Z,8.50
2017-07-04T03:16:33.514Z,7.43
2017-07-04T03:19:01.091Z,8.00
2017-07-04T03:21:28.663Z,6.53
2017-07-04T03:23:56.993Z,6.93
2017-07-04T03:26:24.565Z,7.30
2017-07-04T03:28:52.161Z,8.67
2017-07-04T03:31:19.733Z,7.60
2017-07-04T03:33:48.132Z,7.47
2017-07-04T03:36:15.722Z,8.67
2017-07-04T03:38:53.221Z,7.67
2017-07-04T03:41:20.792Z,8.93
2017-07-04T03:43:48.371Z,6.83
2017-07-04T03:46:15.954Z,7.23
2017-07-04T03:48:43.518Z,6.57
2017-07-04T03:51:11.910Z,7.10
2017-07-04T03:53:40.266Z,6.43
2017-07-04T03:56:07.834Z,6.97
2017-07-04T03:58:36.331Z,5.80
2017-07-04T04:01:04.670Z,7.40
2017-07-04T04:03:32.229Z,7.07
2017-07-04T04:05:59.839Z,5.60
2017-07-04T04:08:27.565Z,6.87
2017-07-04T04:10:55.145Z,5.70
2017-07-04T04:13:22.729Z,6.57
2017-07-04T04:15:50.293Z,6.60
2017-07-04T04:18:17.887Z,6.20
2017-07-04T04:20:45.496Z,6.33
2017-07-04T04:23:13.110Z,6.00
2017-07-04T04:25:40.712Z,5.57
2017-07-04T04:28:08.299Z,6.07
2017-07-04T04:30:36.718Z,4.67
2017-07-04T04:33:04.273Z,6.07
2017-07-04T04:35:31.821Z,5.87
2017-07-04T04:37:59.383Z,4.67
2017-07-04T04:40:26.962Z,4.50
2017-07-04T04:42:54.551Z,4.60
2017-07-04T04:45:22.111Z,4.27
2017-07-04T04:47:49.673Z,4.97
2017-07-04T04:50:17.490Z,5.00
2017-07-04T04:52:45.106Z,4.73
2017-07-04T04:55:12.691Z,4.57
2017-07-04T04:57:41.046Z,4.40
2017-07-04T05:00:08.638Z,3.50
2017-07-04T05:02:37.164Z,4.97
2017-07-04T05:05:05.367Z,4.40
2017-07-04T05:07:32.946Z,4.20
2017-07-04T05:10:00.513Z,4.83
2017-07-04T05:12:28.113Z,4.40
2017-07-04T05:14:55.679Z,3.93
2017-07-04T05:17:23.386Z,3.70
2017-07-04T05:19:50.974Z,3.50
2017-07-04T05:22:19.297Z,3.83
2017-07-04T05:24:46.885Z,3.97
2017-07-04T05:27:14.448Z,4.87
2017-07-04T05:29:42.001Z,4.10
2017-07-04T05:32:09.591Z,4.77
2017-07-04T05:34:37.143Z,3.60
2017-07-04T05:37:04.725Z,4.03
2017-07-04T05:39:33.143Z,4.80
2017-07-04T05:42:00.735Z,3.60
2017-07-04T05:44:29.367Z,4.23
2017-07-04T05:46:57.699Z,3.87
2017-07-04T05:49:25.290Z,4.00
2017-07-04T05:51:53.057Z,3.10
2017-07-04T05:54:20.633Z,4.10
2017-07-04T05:56:48.979Z,4.47
2017-07-04T05:59:16.560Z,3.40
2017-07-04T06:01:44.137Z,3.50
2017-07-04T06:04:12.464Z,3.90
2017-07-04T06:06:40.027Z,4.73
2017-07-04T06:09:07.620Z,4.60
2017-07-04T06:11:35.186Z,3.80
2017-07-04T06:14:02.759Z,4.40
2017-07-04T06:16:31.106Z,5.20
2017-07-04T06:18:58.783Z,5.00
2017-07-04T06:21:26.348Z,4.77
2017-07-04T06:23:53.920Z,4.00
2017-07-04T06:26:21.469Z,5.27
2017-07-04T06:28:49.046Z,5.23
2017-07-04T06:31:17.509Z,4.13
2017-07-04T06:33:45.218Z,3.80
2017-07-04T06:36:12.941Z,3.70
2017-07-04T06:38:40.502Z,4.47
2017-07-04T06:41:08.245Z,5.50
2017-07-04T06:43:35.807Z,3.20
2017-07-04T06:46:03.366Z,4.73
2017-07-04T06:48:30.967Z,4.27
2017-07-04T06:50:58.517Z,3.80
2017-07-04T06:53:26.200Z,3.87
2017-07-04T06:55:53.730Z,4.40
2017-07-04T06:58:21.632Z,3.70
2017-07-04T07:00:49.970Z,3.93
2017-07-04T07:03:17.541Z,4.43
2017-07-04T07:05:45.113Z,4.30
2017-07-04T07:08:12.693Z,4.47
2017-07-04T07:10:40.255Z,3.67
2017-07-04T07:13:07.822Z,4.53
2017-07-04T07:15:36.296Z,4.77
2017-07-04T07:18:03.840Z,3.93
2017-07-04T07:20:31.414Z,4.20
2017-07-04T07:22:58.998Z,3.47
2017-07-04T07:25:27.337Z,3.87
2017-07-04T07:27:55.023Z,4.30
2017-07-04T07:30:22.604Z,3.50
2017-07-04T07:32:50.955Z,3.53
2017-07-04T07:35:18.514Z,3.90
2017-07-04T07:37:46.143Z,3.20
2017-07-04T07:40:13.699Z,3.63
2017-07-04T07:42:41.267Z,3.17
2017-07-04T07:45:08.845Z,2.97
2017-07-04T07:47:36.481Z,2.90
2017-07-04T07:50:04.054Z,3.30
2017-07-04T07:52:31.603Z,2.90
2017-07-04T07:54:59.313Z,2.90
2017-07-04T07:57:26.868Z,3.10
2017-07-04T07:59:54.431Z,3.30
2017-07-04T08:02:22.030Z,3.30
2017-07-04T08:04:50.370Z,3.10
2017-07-04T08:07:17.922Z,3.43
2017-07-04T08:09:45.499Z,3.50
2017-07-04T08:12:13.050Z,3.00
2017-07-04T08:14:40.699Z,3.17
2017-07-04T08:17:08.310Z,3.53
2017-07-04T08:19:35.930Z,3.30
2017-07-04T08:22:03.530Z,3.07
2017-07-04T08:24:31.088Z,3.20
2017-07-04T08:26:58.832Z,3.50
2017-07-04T08:29:26.389Z,3.10
2017-07-04T08:31:53.958Z,3.23
2017-07-04T08:34:21.515Z,3.00
2017-07-04T08:36:49.182Z,3.33
2017-07-04T08:39:16.818Z,4.20
2017-07-04T08:41:44.371Z,3.30
2017-07-04T08:44:12.714Z,3.90
2017-07-04T08:46:40.384Z,3.30
2017-07-04T08:49:08.063Z,3.77
2017-07-04T08:51:36.585Z,3.80
2017-07-04T08:54:04.163Z,3.60
2017-07-04T08:56:31.895Z,2.83
2017-07-04T08:59:00.248Z,3.40
2017-07-04T09:01:27.974Z,3.53
2017-07-04T09:03:55.553Z,2.77
2017-07-04T09:06:23.170Z,2.80
2017-07-04T09:08:50.908Z,2.97
2017-07-04T09:11:18.517Z,3.10
2017-07-04T09:13:46.193Z,3.43
2017-07-04T09:16:13.926Z,3.77
2017-07-04T09:18:41.588Z,3.93
2017-07-04T09:21:09.931Z,3.63
2017-07-04T09:23:37.522Z,3.87
2017-07-04T09:26:05.847Z,3.90
2017-07-04T09:28:33.441Z,3.83
2017-07-04T09:31:00.990Z,3.57
2017-07-04T09:33:28.584Z,3.90
2017-07-04T09:35:56.924Z,3.80
2017-07-04T09:38:24.473Z,4.07
2017-07-04T09:40:52.045Z,3.37
2017-07-04T09:43:19.590Z,3.87
2017-07-04T09:45:47.170Z,4.03
2017-07-04T09:48:14.734Z,4.70
2017-07-04T09:50:42.303Z,4.30
2017-07-04T09:53:09.865Z,4.60
2017-07-04T09:55:37.452Z,4.20
2017-07-04T09:58:05.030Z,4.33
2017-07-04T10:00:33.351Z,5.50
2017-07-04T10:03:00.950Z,4.40
2017-07-04T10:05:28.512Z,4.53
2017-07-04T10:07:56.107Z,4.43
2017-07-04T10:10:23.666Z,4.20
2017-07-04T10:12:51.983Z,4.30
2017-07-04T10:15:19.663Z,4.53
2017-07-04T10:17:47.304Z,4.40
2017-07-04T10:20:14.914Z,4.43
2017-07-04T10:22:42.507Z,4.37
2017-07-04T10:25:10.095Z,4.93
2017-07-04T10:27:37.646Z,4.10
2017-07-04T10:30:05.229Z,4.17
2017-07-04T10:32:32.807Z,3.23
2017-07-04T10:35:00.374Z,4.50
2017-07-04T10:37:27.938Z,4.20
2017-07-04T10:39:55.523Z,4.60
2017-07-04T10:42:23.110Z,4.60
2017-07-04T10:44:50.742Z,6.23
2017-07-04T10:47:18.392Z,5.40
2017-07-04T10:49:46.034Z,5.07
2017-07-04T10:52:13.602Z,4.93
2017-07-04T10:54:41.187Z,4.77
2017-07-04T10:57:08.751Z,4.40
2017-07-04T10:59:36.326Z,3.90
2017-07-04T11:02:03.904Z,4.70
2017-07-04T11:04:31.470Z,4.70
2017-07-04T11:06:59.799Z,5.17
2017-07-04T11:09:27.384Z,4.67
2017-07-04T11:11:54.955Z,4.73
2017-07-04T11:14:22.524Z,4.30
2017-07-04T11:16:50.097Z,4.60
2017-07-04T11:19:18.418Z,5.23
2017-07-04T11:21:46.074Z,3.80
2017-07-04T11:24:13.724Z,4.30
2017-07-04T11:26:41.353Z,4.53
2017-07-04T11:29:08.924Z,4.67
2017-07-04T11:31:36.490Z,4.83
2017-07-04T11:34:04.972Z,4.57
2017-07-04T11:36:33.268Z,5.37
2017-07-04T11:39:01.613Z,5.90
2017-07-04T11:41:29.158Z,5.17
2017-07-04T11:43:56.766Z,4.57
2017-07-04T11:46:25.083Z,3.90
2017-07-04T11:48:52.731Z,4.60
2017-07-04T11:51:20.347Z,6.43
2017-07-04T11:53:47.917Z,5.87
2017-07-04T11:56:15.563Z,5.60
2017-07-04T11:58:43.157Z,6.20
2017-07-04T12:01:11.529Z,5.07
2017-07-04T12:03:39.166Z,5.20
2017-07-04T12:06:06.787Z,7.00
2017-07-04T12:08:34.371Z,5.73
2017-07-04T12:11:01.975Z,6.10
2017-07-04T12:13:29.551Z,5.40
2017-07-04T12:15:57.989Z,4.20
2017-07-04T12:18:25.552Z,5.30
2017-07-04T12:20:53.168Z,5.07
2017-07-04T12:23:20.768Z,5.53
2017-07-04T12:25:48.318Z,4.70
2017-07-04T12:28:15.929Z,4.83
2017-07-04T12:30:43.626Z,5.53
2017-07-04T12:33:11.193Z,4.80
2017-07-04T12:35:38.781Z,4.80
2017-07-04T12:38:06.411Z,3.97
2017-07-04T12:40:34.762Z,4.27
2017-07-04T12:43:02.327Z,4.47
2017-07-04T12:45:29.933Z,4.07
2017-07-04T12:47:58.259Z,5.20
2017-07-04T12:50:25.826Z,4.40
2017-07-04T12:52:53.411Z,4.10
2017-07-04T12:55:20.975Z,4.77
2017-07-04T12:57:48.547Z,4.00
2017-07-04T13:00:16.903Z,4.30
2017-07-04T13:02:44.503Z,3.90
2017-07-04T13:05:12.105Z,4.37
2017-07-04T13:07:39.860Z,4.30
2017-07-04T13:10:07.525Z,3.13
2017-07-04T13:12:35.133Z,3.93
2017-07-04T13:15:02.711Z,4.30
2017-07-04T13:17:31.124Z,3.80
2017-07-04T13:19:58.685Z,3.57
2017-07-04T13:22:26.626Z,4.07
2017-07-04T13:24:55.071Z,4.37
2017-07-04T13:27:22.622Z,3.30
2017-07-04T13:29:50.206Z,4.00
2017-07-04T13:32:17.798Z,3.90
2017-07-04T13:34:45.448Z,4.37
2017-07-04T13:37:13.007Z,3.90
2017-07-04T13:39:40.838Z,3.90
2017-07-04T13:42:08.403Z,4.30
2017-07-04T13:44:36.033Z,3.40
2017-07-04T13:47:03.658Z,4.00
2017-07-04T13:49:31.219Z,2.97
2017-07-04T13:51:58.794Z,2.67
2017-07-04T13:54:26.372Z,3.67
2017-07-04T13:56:54.707Z,4.07
2017-07-04T13:59:22.295Z,3.93
2017-07-04T14:01:49.872Z,3.67
2017-07-04T14:04:17.458Z,3.93
2017-07-04T14:06:45.047Z,3.63
2017-07-04T14:09:12.624Z,3.50
2017-07-04T14:11:40.222Z,4.57
2017-07-04T14:14:07.815Z,3.43
2017-07-04T14:16:35.512Z,3.70
2017-07-04T14:19:03.134Z,3.20
2017-07-04T14:21:31.478Z,3.07
2017-07-04T14:23:59.110Z,2.97
2017-07-04T14:26:26.669Z,2.70
2017-07-04T14:28:54.273Z,4.17
2017-07-04T14:31:21.823Z,3.57
2017-07-04T14:33:49.404Z,3.17
2017-07-04T14:36:16.990Z,3.20
2017-07-04T14:38:44.559Z,3.10
2017-07-04T14:41:12.930Z,3.17
2017-07-04T14:43:41.047Z,2.83
2017-07-04T14:46:08.715Z,2.83
2017-07-04T14:48:36.347Z,2.60
2017-07-04T14:51:03.950Z,3.10
2017-07-04T14:53:31.511Z,2.70
2017-07-04T14:55:59.084Z,2.67
2017-07-04T14:58:26.669Z,2.70
2017-07-04T15:00:54.235Z,3.73
2017-07-04T15:03:21.801Z,3.90
2017-07-04T15:05:49.432Z,3.40
2017-07-04T15:08:17.020Z,3.37
2017-07-04T15:10:44.575Z,3.03
2017-07-04T15:13:12.155Z,3.10
2017-07-04T15:15:40.482Z,2.90
2017-07-04T15:18:08.114Z,3.00
2017-07-04T15:20:35.732Z,3.20
2017-07-04T15:23:03.306Z,3.63
2017-07-04T15:25:30.875Z,3.70
2017-07-04T15:27:58.458Z,2.93
2017-07-04T15:30:26.809Z,3.60
2017-07-04T15:32:54.427Z,2.97
2017-07-04T15:35:21.998Z,3.13
2017-07-04T15:37:49.581Z,3.70
2017-07-04T15:40:17.151Z,4.03
2017-07-04T15:42:44.729Z,3.17
2017-07-04T15:45:12.400Z,3.10
2017-07-04T15:47:40.002Z,3.63
2017-07-04T15:50:07.581Z,3.20
2017-07-04T15:52:35.141Z,3.27
2017-07-04T15:55:02.745Z,3.13
2017-07-04T15:57:30.323Z,3.40
2017-07-04T15:59:57.892Z,2.57
2017-07-04T16:02:26.223Z,3.33
2017-07-04T16:04:53.979Z,3.03
2017-07-04T16:07:21.569Z,3.20
2017-07-04T16:09:49.134Z,3.67
2017-07-04T16:12:16.738Z,4.60
2017-07-04T16:14:45.072Z,3.03
2017-07-04T16:17:12.650Z,2.70
2017-07-04T16:19:40.238Z,3.00
2017-07-04T16:22:08.566Z,3.37
2017-07-04T16:24:36.124Z,2.80
2017-07-04T16:27:03.714Z,3.10
2017-07-04T16:29:31.347Z,2.97
2017-07-04T16:31:58.940Z,2.90
2017-07-04T16:34:26.495Z,2.97
2017-07-04T16:36:54.078Z,3.50
2017-07-04T16:39:21.654Z,3.40
2017-07-04T16:41:49.979Z,3.17
2017-07-04T16:44:17.581Z,3.37
2017-07-04T16:46:45.176Z,2.80
2017-07-04T16:49:12.775Z,3.03
2017-07-04T16:51:40.334Z,3.50
2017-07-04T16:54:07.923Z,3.97
2017-07-04T16:56:35.476Z,3.07
2017-07-04T16:59:03.063Z,3.53
2017-07-04T17:01:30.634Z,3.23
2017-07-04T17:03:58.240Z,3.00
2017-07-04T17:06:25.884Z,3.57
2017-07-04T17:08:53.467Z,3.00
2017-07-04T17:11:21.059Z,3.73
2017-07-04T17:13:48.702Z,2.97
2017-07-04T17:16:16.277Z,3.10
2017-07-04T17:18:43.846Z,4.00
2017-07-04T17:21:11.427Z,3.30
2017-07-04T17:23:39.074Z,3.27
2017-07-04T17:26:06.654Z,3.87
2017-07-04T17:28:34.219Z,2.83
2017-07-04T17:31:01.802Z,4.13
2017-07-04T17:33:29.361Z,3.50
2017-07-04T17:35:56.895Z,3.77
2017-07-04T17:38:24.476Z,3.23
2017-07-04T17:40:52.079Z,3.27
2017-07-04T17:43:19.735Z,2.97
2017-07-04T17:45:47.314Z,2.90
2017-07-04T17:48:14.888Z,3.20
2017-07-04T17:50:42.434Z,3.20
2017-07-04T17:53:10.002Z,3.40
2017-07-04T17:55:37.590Z,3.60
2017-07-04T17:58:05.205Z,3.77
2017-07-04T18:00:34.383Z,4.20
2017-07-04T18:03:02.732Z,3.17
2017-07-04T18:05:30.326Z,2.97
2017-07-04T18:07:57.942Z,3.20
2017-07-04T18:10:25.558Z,2.90
2017-07-04T18:12:53.082Z,3.63
2017-07-04T18:15:20.682Z,2.97
2017-07-04T18:17:48.249Z,3.30
2017-07-04T18:20:15.818Z,2.77
2017-07-04T18:22:44.254Z,3.13
2017-07-04T18:25:11.838Z,3.00
2017-07-04T18:27:39.470Z,3.17
2017-07-04T18:30:07.035Z,3.33
2017-07-04T18:32:34.616Z,2.97
2017-07-04T18:35:02.194Z,2.93
2017-07-04T18:37:29.787Z,3.00
2017-07-04T18:39:58.119Z,3.30
2017-07-04T18:42:25.699Z,3.17
2017-07-04T18:44:53.291Z,3.20
2017-07-04T18:47:21.610Z,3.00
2017-07-04T18:49:49.394Z,3.50
2017-07-04T18:52:16.981Z,2.80
2017-07-04T18:54:44.574Z,3.60
2017-07-04T18:57:12.931Z,3.97
2017-07-04T18:59:41.339Z,3.27
2017-07-04T19:02:08.928Z,2.77
2017-07-04T19:04:36.498Z,3.17
2017-07-04T19:07:04.096Z,3.43
2017-07-04T19:09:31.699Z,3.17
2017-07-04T19:11:59.281Z,3.43
2017-07-04T19:14:26.859Z,3.50
2017-07-04T19:16:54.450Z,3.23
2017-07-04T19:19:22.032Z,3.07
2017-07-04T19:21:50.360Z,3.00
2017-07-04T19:24:17.962Z,3.87
2017-07-04T19:26:46.293Z,3.27
2017-07-04T19:29:13.900Z,3.40
2017-07-04T19:31:41.459Z,3.43
2017-07-04T19:34:09.050Z,3.27
2017-07-04T19:36:37.390Z,4.00
2017-07-04T19:39:04.967Z,3.83
2017-07-04T19:41:32.549Z,3.60
2017-07-04T19:44:00.150Z,3.77
2017-07-04T19:46:27.734Z,4.33
2017-07-04T19:48:55.304Z,3.57
2017-07-04T19:51:22.926Z,4.47
2017-07-04T19:53:50.483Z,3.43
2017-07-04T19:56:18.062Z,4.17
2017-07-04T19:58:45.697Z,4.50
2017-07-04T20:01:14.034Z,5.27
2017-07-04T20:03:41.869Z,4.10
2017-07-04T20:06:09.483Z,13.13
2017-07-04T20:08:37.047Z,6.00
2017-07-04T20:11:04.635Z,5.47
2017-07-04T20:13:32.250Z,4.33
2017-07-04T20:15:59.912Z,4.93
2017-07-04T20:18:27.527Z,4.30
2017-07-04T20:20:55.165Z,3.63
2017-07-04T20:23:23.516Z,3.67
2017-07-04T20:25:51.119Z,4.10
2017-07-04T20:28:19.535Z,4.10
2017-07-04T20:30:47.157Z,3.60
2017-07-04T20:33:15.504Z,4.20
2017-07-04T20:35:43.159Z,4.03
2017-07-04T20:38:10.883Z,5.50
2017-07-04T20:40:38.486Z,5.83
2017-07-04T20:43:06.151Z,5.07
2017-07-04T20:45:33.711Z,4.80
2017-07-04T20:48:01.328Z,5.50
2017-07-04T20:50:29.429Z,4.37
2017-07-04T20:52:57.116Z,6.47
2017-07-04T20:55:24.698Z,4.83
2017-07-04T20:57:52.278Z,5.30
2017-07-04T21:00:20.049Z,5.00
2017-07-04T21:02:47.650Z,4.80
2017-07-04T21:05:15.218Z,5.00
2017-07-04T21:07:42.818Z,4.80
2017-07-04T21:10:10.403Z,5.40
2017-07-04T21:12:38.759Z,4.97
2017-07-04T21:15:06.338Z,4.77
2017-07-04T21:17:34.892Z,5.17
2017-07-04T21:20:03.244Z,5.17
2017-07-04T21:22:31.017Z,6.40
2017-07-04T21:24:58.739Z,6.20
2017-07-04T21:27:27.114Z,5.60
2017-07-04T21:29:55.789Z,5.03
2017-07-04T21:32:23.416Z,5.83
2017-07-04T21:34:51.122Z,5.77
2017-07-04T21:37:18.753Z,5.63
2017-07-04T21:39:46.381Z,5.37
2017-07-04T21:42:13.971Z,6.20
2017-07-04T21:44:42.347Z,5.97
2017-07-04T21:47:10.779Z,6.53
2017-07-04T21:49:38.413Z,7.50
2017-07-04T21:52:05.995Z,6.77
2017-07-04T21:54:33.684Z,7.93
2017-07-04T21:57:01.336Z,8.30
2017-07-04T21:59:28.905Z,8.20
2017-07-04T22:01:56.524Z,8.87
2017-07-04T22:04:24.160Z,8.33
2017-07-04T22:06:51.720Z,7.50
2017-07-04T22:09:19.309Z,8.00
2017-07-04T22:11:46.871Z,8.60
2017-07-04T22:14:14.439Z,9.20
2017-07-04T22:16:42.130Z,8.93
2017-07-04T22:19:09.793Z,9.17
2017-07-04T22:21:37.407Z,10.30
2017-07-04T22:24:05.774Z,8.73
2017-07-04T22:26:33.367Z,10.10
2017-07-04T22:29:01.668Z,9.40
2017-07-04T22:31:29.419Z,10.30
2017-07-04T22:33:57.510Z,9.00
2017-07-04T22:36:25.173Z,10.53
2017-07-04T22:38:52.778Z,11.17
2017-07-04T22:41:20.616Z,9.37
2017-07-04T22:43:48.573Z,9.97
2017-07-04T22:46:16.323Z,10.67
2017-07-04T22:48:44.133Z,10.67
2017-07-04T22:51:11.872Z,10.50
2017-07-04T22:53:39.941Z,10.53
2017-07-04T22:56:07.818Z,10.97
2017-07-04T22:58:35.572Z,10.60
2017-07-04T23:01:03.340Z,11.50
2017-07-04T23:03:31.242Z,12.07
2017-07-04T23:05:59.107Z,11.00
2017-07-04T23:08:27.069Z,11.53
2017-07-04T23:10:55.213Z,10.20
2017-07-04T23:13:23.946Z,10.43
2017-07-04T23:15:51.785Z,10.10
2017-07-04T23:18:19.640Z,11.90
2017-07-04T23:20:48.254Z,10.53
2017-07-04T23:23:15.983Z,10.40
2017-07-04T23:25:44.610Z,11.17
2017-07-04T23:28:12.463Z,10.33
2017-07-04T23:30:40.359Z,11.40
2017-07-04T23:33:08.127Z,9.63
2017-07-04T23:35:35.988Z,10.23
2017-07-04T23:38:04.675Z,10.03
2017-07-04T23:40:32.333Z,10.73
2017-07-04T23:42:59.941Z,11.27
2017-07-04T23:45:28.295Z,10.70
2017-07-04T23:47:55.934Z,11.23
2017-07-04T23:50:23.597Z,10.20
2017-07-04T23:52:51.184Z,11.00
2017-07-04T23:55:18.751Z,11.00
2017-07-04T23:57:46.339Z,10.73
